ケアンズ の空港の天気 - METARとTAF

ケアンズ国際空港 ( YBCS / CNS ) - オーストラリア クイーンズランド州ケアンズ
飛行場実況気象(Metar)
観測時間03/26 17:00 AEST (03/26 07:00 UTC)
風向・風速北 3m/s
視程10km以上
天気現象
少しの雲 雲底高度 1830m
全天の8割程度の雲 雲底高度 10360m
気温31℃
湿度66%
気圧1005hPa
METARYBCS 260700Z 36006KT 9999 FEW060 BKN340 31/24 Q1005
過去の天気等 Google飛行場航空写真 Wunderground天気予報

過去48時間のMETAR

飛行場予報(TAF)
発表時間: 3/26 15:19 AEST (3/26 05:19 UTC)
予報対象時間: 26日16時 AEST ~ 27日16時 AEST
風向・風速北北東 5m/s
視程10km以上
全天の4割程度の雲 雲底高度 910m
26日19時 AEST から
風向・風速西南西 3m/s
視程10km以上
少しの雲 雲底高度 760m
27日10時 AEST から
風向・風速西 8m/s
視程10km以上
少しの雲 雲底高度 1,370m
TAF YBCS 260519Z 2606/2706 03010KT 9999 SCT030
FM260900 24005KT 9999 FEW025
FM270000 26015KT 9999 FEW045